Time;durP1;ratioP1;P1;durP2;ratioP2;P2;SDS_P1;SDS_P2;PMS_P1;PMS_P2;Temp;Humidity;BMP_temperature;BMP_pressure;BME280_temperature;BME280_humidity;BME280_pressure;Samples;Min_cycle;Max_cycle;Signal;HPM_P1;HPM_P2
2022/08/15 00:00:50;;;;;;;21.95;13.15;;;;;;;21.26;72.52;100120.34;5072908;28;20025;-74
2022/08/15 00:03:22;;;;;;;22.23;12.27;;;;;;;21.24;73.09;100108.75;5073100;28;20453;-74
2022/08/15 00:05:48;;;;;;;22.02;12.48;;;;;;;21.23;75.78;100096.16;5072406;28;20056;-74
2022/08/15 00:08:14;;;;;;;22.98;13.38;;;;;;;21.19;76.58;100105.78;5073134;28;20028;-74
2022/08/15 00:10:44;;;;;;;22.35;12.70;;;;;;;21.17;76.36;100109.75;5075224;28;20036;-74
2022/08/15 00:13:22;;;;;;;22.55;13.25;;;;;;;21.15;75.63;100112.69;5076044;28;20024;-74
2022/08/15 00:15:51;;;;;;;23.02;14.02;;;;;;;21.14;77.89;100108.25;5077051;28;20020;-74
2022/08/15 00:18:18;;;;;;;21.85;12.93;;;;;;;21.10;73.91;100113.28;5076918;28;20115;-74
2022/08/15 00:20:44;;;;;;;24.30;13.40;;;;;;;21.08;74.47;100111.78;5076939;28;20129;-74
2022/08/15 00:23:13;;;;;;;24.48;13.65;;;;;;;21.06;75.68;100112.00;5076706;28;20028;-74
2022/08/15 00:25:39;;;;;;;22.67;12.48;;;;;;;21.03;74.51;100106.09;5076619;28;20028;-74
2022/08/15 00:28:06;;;;;;;24.65;14.32;;;;;;;21.02;76.76;100120.78;5076745;28;20226;-74
2022/08/15 00:30:33;;;;;;;21.55;12.20;;;;;;;21.03;72.97;100122.50;5074993;28;20067;-74
2022/08/15 00:32:58;;;;;;;23.48;14.15;;;;;;;21.03;74.80;100112.41;5056412;28;20057;-74
2022/08/15 00:35:36;;;;;;;22.52;13.45;;;;;;;21.04;75.34;100114.09;5055421;28;20120;-74
2022/08/15 00:38:23;;;;;;;21.80;13.00;;;;;;;21.10;69.51;100107.81;5056750;28;20086;-74
2022/08/15 00:43:40;;;;;;;22.05;12.82;;;;;;;21.21;65.43;100102.84;5056592;28;20044;-74
2022/08/15 00:46:09;;;;;;;22.05;11.63;;;;;;;21.28;62.49;100118.22;5056282;28;20033;-74
2022/08/15 00:48:44;;;;;;;20.25;10.27;;;;;;;21.36;60.92;100117.22;5056829;28;20032;-74
2022/08/15 00:51:34;;;;;;;25.50;11.27;;;;;;;21.43;62.73;100117.28;5056229;28;20033;-74
2022/08/15 00:54:29;;;;;;;20.42;10.05;;;;;;;21.51;62.64;100121.75;5056473;28;20364;-74
2022/08/15 00:57:07;;;;;;;18.95;9.32;;;;;;;21.56;59.39;100113.78;5014122;28;20041;-74
2022/08/15 00:59:37;;;;;;;20.85;9.23;;;;;;;21.59;59.52;100116.13;5014354;28;20026;-74
2022/08/15 01:02:07;;;;;;;18.77;9.20;;;;;;;21.61;57.67;100122.22;5014144;28;20387;-74
2022/08/15 01:04:34;;;;;;;19.95;8.57;;;;;;;21.66;56.18;100117.00;5014446;28;20119;-74
2022/08/15 01:06:59;;;;;;;19.38;8.55;;;;;;;21.67;55.28;100118.69;5014609;28;20030;-74
2022/08/15 01:09:27;;;;;;;16.85;7.43;;;;;;;21.67;58.69;100115.09;4997893;28;20117;-74
2022/08/15 01:11:54;;;;;;;19.38;7.40;;;;;;;21.67;55.22;100112.38;4997484;28;20022;-74
2022/08/15 01:14:20;;;;;;;16.95;7.10;;;;;;;21.70;54.12;100109.22;5014419;28;20062;-74
2022/08/15 01:16:46;;;;;;;14.43;6.60;;;;;;;21.74;54.09;100105.03;5013542;28;20033;-74
2022/08/15 01:19:19;;;;;;;15.45;6.13;;;;;;;21.75;55.07;100101.25;5013941;28;20041;-74
2022/08/15 01:22:01;;;;;;;16.00;6.82;;;;;;;21.78;55.61;100103.59;5013251;28;20114;-74
2022/08/15 01:24:46;;;;;;;15.20;6.65;;;;;;;21.79;58.03;100110.75;5013881;28;20371;-74
2022/08/15 01:27:12;;;;;;;18.65;6.55;;;;;;;21.77;53.91;100113.69;4997266;28;20029;-74
2022/08/15 01:29:37;;;;;;;20.45;7.35;;;;;;;21.76;55.93;100111.16;5013595;28;20040;-74
2022/08/15 01:32:03;;;;;;;17.00;6.47;;;;;;;21.72;54.31;100102.50;4997063;28;20204;-74
2022/08/15 01:34:28;;;;;;;17.45;6.63;;;;;;;21.71;52.81;100109.00;5062785;28;20087;-74
2022/08/15 01:36:54;;;;;;;19.88;6.90;;;;;;;21.69;56.30;100104.81;5075413;28;20060;-74
2022/08/15 01:39:40;;;;;;;15.65;5.80;;;;;;;21.68;58.35;100100.38;5074067;28;20040;-74
2022/08/15 01:42:13;;;;;;;13.35;5.50;;;;;;;21.58;57.60;100098.03;5074298;28;20020;-74
2022/08/15 01:44:50;;;;;;;15.63;6.45;;;;;;;21.54;55.84;100103.06;5074716;28;20384;-74
2022/08/15 01:47:27;;;;;;;17.35;6.25;;;;;;;21.53;55.15;100117.78;5075647;28;20024;-74
2022/08/15 01:50:00;;;;;;;12.35;5.53;;;;;;;21.48;57.38;100115.63;5074349;28;20028;-74
2022/08/15 01:52:45;;;;;;;12.57;5.43;;;;;;;21.47;55.17;100124.03;5075410;28;20035;-74
2022/08/15 01:55:14;;;;;;;14.43;5.65;;;;;;;21.43;57.52;100126.31;5075311;28;20541;-74
2022/08/15 01:57:39;;;;;;;11.37;5.00;;;;;;;21.39;53.93;100113.25;5074964;28;20538;-74
2022/08/15 02:00:08;;;;;;;14.15;5.65;;;;;;;21.35;56.45;100112.81;5075178;28;20480;-74
2022/08/15 02:02:33;;;;;;;14.38;5.65;;;;;;;21.32;55.61;100112.34;5074873;28;20035;-74
2022/08/15 02:04:58;;;;;;;12.27;4.97;;;;;;;21.28;54.24;100115.50;5073612;28;20021;-74
2022/08/15 02:07:28;;;;;;;12.25;5.22;;;;;;;21.27;56.77;100113.84;5074777;28;20385;-74
2022/08/15 02:09:55;;;;;;;13.98;5.65;;;;;;;21.23;54.77;100118.00;5074677;28;20023;-74
2022/08/15 02:12:31;;;;;;;15.80;5.70;;;;;;;21.24;53.83;100111.47;5075351;28;20024;-74
2022/08/15 02:14:58;;;;;;;14.63;6.07;;;;;;;21.22;54.64;100112.75;5074481;28;20158;-74
2022/08/15 02:17:24;;;;;;;14.55;5.68;;;;;;;21.21;54.22;100116.50;5073828;28;20035;-74
2022/08/15 02:19:50;;;;;;;16.05;5.22;;;;;;;21.17;55.33;100121.50;5074827;28;20396;-74
2022/08/15 02:22:19;;;;;;;15.00;5.55;;;;;;;21.11;57.18;100114.13;5073744;28;20594;-74
2022/08/15 02:24:44;;;;;;;12.40;4.95;;;;;;;21.09;55.32;100116.22;5073178;28;20021;-74
2022/08/15 02:27:11;;;;;;;14.30;5.45;;;;;;;21.08;54.75;100114.53;5074547;28;20127;-74
2022/08/15 02:29:37;;;;;;;11.88;5.22;;;;;;;21.06;56.63;100111.16;5074817;28;20064;-74
2022/08/15 02:32:12;;;;;;;15.18;5.75;;;;;;;21.04;54.67;100108.63;5072794;28;20132;-74
2022/08/15 02:34:38;;;;;;;13.32;5.30;;;;;;;21.04;54.48;100105.91;5073507;28;20027;-74
2022/08/15 02:37:05;;;;;;;13.07;4.93;;;;;;;21.02;54.54;100105.25;5074571;28;20033;-74
2022/08/15 02:39:31;;;;;;;19.13;5.93;;;;;;;21.01;55.17;100108.16;5074597;28;20025;-74
2022/08/15 02:41:57;;;;;;;14.35;5.78;;;;;;;21.00;56.92;100111.97;5074376;28;20027;-74
2022/08/15 02:44:23;;;;;;;15.63;5.70;;;;;;;20.97;54.89;100113.19;5075018;28;20460;-74
2022/08/15 02:46:51;;;;;;;17.90;5.80;;;;;;;20.97;55.12;100113.19;5074251;28;20024;-74
2022/08/15 02:49:18;;;;;;;13.35;5.75;;;;;;;20.97;55.83;100118.66;5073843;28;20059;-74
2022/08/15 02:51:44;;;;;;;18.33;5.43;;;;;;;20.96;55.22;100116.97;5073102;28;20031;-74
2022/08/15 02:54:10;;;;;;;15.80;6.05;;;;;;;20.94;55.44;100117.16;5074762;28;20496;-74
2022/08/15 02:56:37;;;;;;;13.85;5.38;;;;;;;20.94;54.87;100110.88;5074527;28;20028;-74
2022/08/15 02:59:03;;;;;;;15.05;5.45;;;;;;;20.94;54.39;100108.97;5073935;28;20115;-74
2022/08/15 03:01:30;;;;;;;12.35;5.55;;;;;;;20.94;54.70;100108.97;5074331;28;20115;-74
2022/08/15 03:03:56;;;;;;;15.00;5.70;;;;;;;20.92;56.72;100119.28;5074467;28;20103;-74
2022/08/15 03:06:25;;;;;;;15.50;6.18;;;;;;;20.89;59.37;100116.91;5073187;28;20464;-74
2022/08/15 03:08:52;;;;;;;12.20;5.10;;;;;;;20.85;58.55;100121.09;5072590;28;20016;-74
2022/08/15 03:11:18;;;;;;;16.00;5.78;;;;;;;20.78;58.92;100121.03;5073115;28;20029;-74
2022/08/15 03:13:43;;;;;;;17.25;5.97;;;;;;;20.74;56.22;100124.34;5073998;28;20021;-74
2022/08/15 03:16:10;;;;;;;15.68;5.70;;;;;;;20.73;56.57;100117.19;5074073;28;20039;-74
2022/08/15 03:18:37;;;;;;;13.65;5.40;;;;;;;20.72;56.10;100131.91;5073943;28;20052;-74
2022/08/15 03:21:06;;;;;;;15.27;5.97;;;;;;;20.72;56.11;100121.00;5074328;28;20051;-74
2022/08/15 03:23:32;;;;;;;17.60;5.82;;;;;;;20.70;55.89;100112.97;5073001;28;20097;-74
2022/08/15 03:26:01;;;;;;;12.38;6.18;;;;;;;20.71;55.73;100119.28;5073962;28;20046;-74
2022/08/15 03:28:29;;;;;;;13.95;5.90;;;;;;;20.70;56.26;100112.97;5074303;28;20025;-74
2022/08/15 03:30:56;;;;;;;16.83;6.35;;;;;;;20.69;56.56;100116.75;5073595;28;20045;-74
2022/08/15 03:33:23;;;;;;;12.40;5.75;;;;;;;20.67;55.91;100118.00;5074118;28;20399;-74
2022/08/15 03:35:50;;;;;;;14.70;5.82;;;;;;;20.64;58.17;100126.56;5074549;28;20021;-74
2022/08/15 03:38:16;;;;;;;17.17;5.97;;;;;;;20.59;56.70;100117.06;5073796;28;20024;-74
2022/08/15 03:40:45;;;;;;;16.90;6.57;;;;;;;20.56;56.53;100120.19;5073987;28;20094;-74
2022/08/15 03:43:14;;;;;;;17.38;6.55;;;;;;;20.54;56.88;100111.34;5072653;28;20021;-74
2022/08/15 03:45:45;;;;;;;15.80;6.20;;;;;;;20.50;56.46;100117.38;5076304;28;20035;-74
2022/08/15 03:48:10;;;;;;;16.77;6.45;;;;;;;20.47;57.21;100115.91;5076681;28;20066;-74
2022/08/15 03:50:35;;;;;;;19.95;7.35;;;;;;;20.44;57.64;100119.03;5077365;28;20472;-74
2022/08/15 03:53:03;;;;;;;17.20;6.47;;;;;;;20.40;57.85;100123.19;5076126;28;20063;-74
2022/08/15 03:55:30;;;;;;;16.83;6.65;;;;;;;20.37;57.88;100129.03;5076604;28;20071;-74
2022/08/15 03:57:58;;;;;;;17.80;6.22;;;;;;;20.33;58.17;100128.56;5077303;28;20029;-74
2022/08/15 04:00:26;;;;;;;17.95;7.07;;;;;;;20.31;58.29;100127.94;5076519;28;20028;-74
2022/08/15 04:02:53;;;;;;;17.93;7.13;;;;;;;20.28;58.17;100132.91;5076082;28;20020;-74
2022/08/15 04:05:19;;;;;;;17.92;6.63;;;;;;;20.26;58.54;100130.38;5077799;28;20480;-74
2022/08/15 04:07:45;;;;;;;17.67;7.05;;;;;;;20.23;59.45;100134.31;5077364;28;20035;-74
2022/08/15 04:10:15;;;;;;;14.75;6.40;;;;;;;20.21;61.50;100121.94;5077293;28;20028;-74
2022/08/15 04:12:42;;;;;;;18.52;6.53;;;;;;;20.19;59.17;100124.88;5077356;28;20063;-74
2022/08/15 04:15:11;;;;;;;18.50;7.13;;;;;;;20.20;60.28;100121.06;5076935;28;20491;-74
2022/08/15 04:17:37;;;;;;;16.58;6.35;;;;;;;20.22;60.50;100124.47;5075537;28;20032;-74
2022/08/15 04:20:03;;;;;;;13.40;5.93;;;;;;;20.19;60.63;100124.88;5075839;28;20384;-74
2022/08/15 04:22:36;;;;;;;15.73;6.63;;;;;;;20.19;60.71;100122.13;5077456;28;20058;-74
2022/08/15 04:25:11;;;;;;;16.27;5.88;;;;;;;20.20;60.86;100134.72;5075354;28;20107;-74
2022/08/15 04:27:38;;;;;;;18.00;6.32;;;;;;;20.19;61.72;100132.19;5077077;28;20528;-74
2022/08/15 04:30:06;;;;;;;17.65;6.07;;;;;;;20.17;62.51;100135.09;5076920;28;20056;-74
2022/08/15 04:32:31;;;;;;;17.00;7.40;;;;;;;20.17;62.65;100135.09;5071822;28;20052;-74
2022/08/15 04:34:58;;;;;;;15.88;6.32;;;;;;;20.16;62.13;100138.91;5076807;28;20029;-74
2022/08/15 04:37:25;;;;;;;17.20;6.38;;;;;;;20.15;63.60;100131.75;5076941;28;20032;-74
2022/08/15 04:39:50;;;;;;;16.83;6.20;;;;;;;20.17;62.99;100134.28;5075242;28;20016;-74
2022/08/15 04:42:19;;;;;;;20.08;6.53;;;;;;;20.17;62.91;100126.09;5077155;28;20099;-74
2022/08/15 04:44:45;;;;;;;17.13;6.47;;;;;;;20.19;63.45;100138.50;5076825;28;20031;-74
2022/08/15 04:47:11;;;;;;;19.63;7.13;;;;;;;20.19;63.60;100138.50;5075633;28;20119;-74
2022/08/15 04:49:36;;;;;;;17.00;6.15;;;;;;;20.21;64.09;100136.41;5076874;28;20079;-74
2022/08/15 04:52:10;;;;;;;16.75;6.40;;;;;;;20.20;64.94;100132.00;5076646;28;20027;-74
2022/08/15 04:54:36;;;;;;;20.70;6.32;;;;;;;20.21;64.59;100135.59;5077065;28;20081;-74
2022/08/15 04:57:02;;;;;;;16.52;5.90;;;;;;;20.22;65.09;100132.66;5075258;28;20480;-74
2022/08/15 04:59:27;;;;;;;20.58;6.82;;;;;;;20.22;65.27;100135.38;5076460;28;20035;-74
2022/08/15 05:01:52;;;;;;;13.57;5.63;;;;;;;20.23;64.72;100137.06;5076166;28;20029;-74
2022/08/15 05:04:17;;;;;;;14.68;6.15;;;;;;;20.24;65.35;100136.03;5076019;28;20158;-74
2022/08/15 05:06:43;;;;;;;17.67;6.47;;;;;;;20.28;64.77;100141.09;5076001;28;20410;-74
2022/08/15 05:09:08;;;;;;;18.63;6.30;;;;;;;20.31;65.68;100140.69;5075197;28;20017;-74
2022/08/15 05:11:33;;;;;;;15.38;5.82;;;;;;;20.33;65.75;100135.91;5076416;28;20123;-74
2022/08/15 05:13:58;;;;;;;17.58;6.38;;;;;;;20.35;65.02;100125.63;5074828;28;20028;-74
2022/08/15 05:16:24;;;;;;;18.92;6.72;;;;;;;20.39;65.55;100135.97;5075765;28;20024;-74
2022/08/15 05:18:49;;;;;;;16.77;6.53;;;;;;;20.40;65.71;100150.47;5076242;28;20111;-74
2022/08/15 05:21:14;;;;;;;15.85;6.30;;;;;;;20.42;66.17;100151.97;5076346;28;20024;-74
2022/08/15 05:23:43;;;;;;;18.85;7.40;;;;;;;20.42;65.62;100149.25;5074768;28;20081;-74
2022/08/15 05:26:10;;;;;;;16.38;6.20;;;;;;;20.45;65.92;100155.34;5076155;28;20027;-74
2022/08/15 05:28:36;;;;;;;15.57;5.88;;;;;;;20.47;66.36;100167.78;5075731;28;20031;-74
2022/08/15 05:31:05;;;;;;;18.25;6.18;;;;;;;20.48;66.03;100168.59;5074134;28;20400;-74
2022/08/15 05:33:31;;;;;;;15.30;6.25;;;;;;;20.49;65.65;100168.41;5075876;28;20047;-74
2022/08/15 05:35:58;;;;;;;16.55;6.22;;;;;;;20.51;68.61;100168.22;5074998;28;20024;-74
2022/08/15 05:38:27;;;;;;;18.10;6.40;;;;;;;20.50;69.26;100172.84;5075952;28;20032;-74
2022/08/15 05:41:14;;;;;;;21.08;7.07;;;;;;;20.52;68.61;100173.47;5075916;28;20047;-74
2022/08/15 05:43:52;;;;;;;16.33;6.95;;;;;;;20.49;69.73;100176.59;5076088;28;20021;-74
2022/08/15 05:46:26;;;;;;;20.13;6.80;;;;;;;20.45;68.41;100169.81;5075727;28;20109;-74
2022/08/15 05:49:31;;;;;;;16.98;6.20;;;;;;;20.47;68.72;100177.81;5074403;28;20028;-74
2022/08/15 05:52:21;;;;;;;17.38;6.90;;;;;;;20.46;69.67;100171.53;5044327;28;20291;-74
2022/08/15 05:55:30;;;;;;;21.10;6.82;;;;;;;20.48;69.51;100174.06;5075838;28;20031;-74
2022/08/15 05:58:30;;;;;;;17.38;6.55;;;;;;;20.46;70.15;100174.25;5016281;28;20065;-74
2022/08/15 06:01:32;;;;;;;17.98;5.97;;;;;;;20.45;69.84;100178.00;5033017;28;20040;-74
2022/08/15 06:04:22;;;;;;;17.33;6.00;;;;;;;20.45;69.66;100174.44;5016451;28;20105;-74
2022/08/15 06:06:50;;;;;;;19.65;6.57;;;;;;;20.45;71.39;100182.66;5032927;28;20072;-74
2022/08/15 06:09:25;;;;;;;17.88;6.57;;;;;;;20.47;70.48;100177.81;5032133;28;20057;-74
2022/08/15 06:11:53;;;;;;;17.65;6.57;;;;;;;20.49;70.60;100181.22;5032861;28;20090;-74
2022/08/15 06:14:31;;;;;;;18.17;6.50;;;;;;;20.50;69.30;100181.03;5032802;28;20104;-74
2022/08/15 06:17:02;;;;;;;19.17;7.82;;;;;;;20.53;69.98;100185.25;5032811;28;20730;-74
2022/08/15 06:19:32;;;;;;;17.95;6.55;;;;;;;20.53;70.09;100185.25;5016376;28;20026;-74
2022/08/15 06:22:17;;;;;;;16.58;6.78;;;;;;;20.56;69.61;100184.88;5016486;28;20437;-74
2022/08/15 06:25:31;;;;;;;19.08;6.57;;;;;;;20.62;69.11;100189.53;5032868;28;20033;-74
2022/08/15 06:28:21;;;;;;;20.08;6.45;;;;;;;20.65;69.34;100189.16;4974348;28;20042;-74
2022/08/15 06:31:00;;;;;;;17.38;6.45;;;;;;;20.70;70.04;100189.44;4957317;28;20034;-74
2022/08/15 06:33:40;;;;;;;15.68;6.25;;;;;;;20.72;69.97;100181.06;4974299;28;20491;-74
2022/08/15 06:36:17;;;;;;;17.80;6.13;;;;;;;20.76;70.01;100182.34;4992692;28;20194;-74
2022/08/15 06:38:48;;;;;;;18.60;6.53;;;;;;;20.79;69.63;100181.94;4993117;28;20061;-74
2022/08/15 06:41:30;;;;;;;16.35;5.95;;;;;;;20.83;69.57;100179.69;4993432;28;20113;-74
2022/08/15 06:43:57;;;;;;;24.85;6.78;;;;;;;20.85;70.47;100174.84;4993549;28;20046;-74
2022/08/15 06:46:27;;;;;;;14.70;6.47;;;;;;;20.87;69.81;100179.09;4993343;28;20030;-74
2022/08/15 06:48:53;;;;;;;17.65;6.65;;;;;;;20.90;69.67;100175.13;4993286;28;20028;-74
2022/08/15 06:51:20;;;;;;;14.85;5.68;;;;;;;20.92;70.34;100186.69;4992808;28;20038;-74
2022/08/15 06:53:55;;;;;;;17.25;6.32;;;;;;;20.95;70.04;100192.63;4992967;28;20154;-74
2022/08/15 06:56:33;;;;;;;15.90;5.15;;;;;;;20.97;70.22;100195.16;4993060;28;20045;-74
2022/08/15 06:59:16;;;;;;;19.02;5.82;;;;;;;21.00;70.03;100192.03;4992928;28;20073;-74
2022/08/15 07:01:58;;;;;;;19.30;6.50;;;;;;;21.03;70.16;100193.53;4993307;28;20022;-74
2022/08/15 07:04:54;;;;;;;16.88;6.32;;;;;;;21.07;69.41;100194.78;5046503;28;20102;-74
2022/08/15 07:07:53;;;;;;;15.52;5.93;;;;;;;21.12;69.58;100192.31;5074673;28;20492;-74
2022/08/15 07:10:45;;;;;;;15.55;6.25;;;;;;;21.18;69.58;100185.22;5074493;28;20464;-74
2022/08/15 07:13:16;;;;;;;17.38;6.20;;;;;;;21.27;71.08;100178.56;5074953;28;20028;-74
2022/08/15 07:15:57;;;;;;;17.08;6.50;;;;;;;21.37;69.84;100178.22;5074130;28;20024;-74
2022/08/15 07:18:33;;;;;;;17.25;6.45;;;;;;;21.43;69.30;100182.88;5073615;28;20024;-74
2022/08/15 07:21:02;;;;;;;18.50;6.05;;;;;;;21.49;69.36;100173.88;5077530;28;20062;-74
2022/08/15 07:23:30;;;;;;;19.13;6.73;;;;;;;21.54;69.25;100174.16;5078660;28;20036;-74
2022/08/15 07:26:01;;;;;;;18.65;7.18;;;;;;;21.57;68.97;100178.38;5078260;28;20028;-74
2022/08/15 07:28:28;;;;;;;18.55;7.88;;;;;;;21.60;68.92;100178.81;5078531;28;20021;-74
2022/08/15 07:31:18;;;;;;;19.45;7.28;;;;;;;21.64;69.00;100180.09;5078129;28;20052;-74
2022/08/15 07:33:50;;;;;;;21.83;8.40;;;;;;;21.65;68.54;100186.41;5077242;28;20067;-74
2022/08/15 07:36:23;;;;;;;19.30;7.68;;;;;;;21.67;68.85;100178.00;5078290;28;20074;-74
2022/08/15 07:38:49;;;;;;;18.58;8.02;;;;;;;21.68;68.69;100179.69;5078255;28;20409;-74
2022/08/15 07:41:39;;;;;;;19.08;7.88;;;;;;;21.70;68.43;100177.59;5076969;28;20028;-74
2022/08/15 07:44:30;;;;;;;20.38;6.93;;;;;;;21.73;68.80;100180.78;5077787;28;20032;-74
2022/08/15 07:47:00;;;;;;;25.20;9.02;;;;;;;21.76;69.13;100182.28;5078446;28;20099;-74
2022/08/15 07:49:29;;;;;;;18.15;8.00;;;;;;;21.76;68.51;100185.00;5078336;28;20035;-74
2022/08/15 07:52:02;;;;;;;19.70;7.82;;;;;;;21.79;68.53;100190.06;5077472;28;20031;-74
2022/08/15 07:54:32;;;;;;;18.65;8.23;;;;;;;21.78;68.08;100185.63;5077729;28;20103;-74
2022/08/15 07:57:01;;;;;;;19.00;7.70;;;;;;;21.83;69.33;100194.06;5077531;28;20025;-74
2022/08/15 07:59:31;;;;;;;17.92;7.93;;;;;;;21.85;68.50;100188.41;5077936;28;20032;-74
2022/08/15 08:02:22;;;;;;;19.10;8.15;;;;;;;21.88;68.31;100199.78;5076119;28;20387;-74
2022/08/15 08:04:47;;;;;;;20.30;7.93;;;;;;;21.91;68.35;100209.50;5077662;28;20063;-74
2022/08/15 08:07:36;;;;;;;23.98;8.40;;;;;;;21.95;68.06;100203.41;5077678;28;20362;-74
2022/08/15 08:10:23;;;;;;;20.50;8.30;;;;;;;21.95;67.50;100197.94;5077198;28;20553;-74
2022/08/15 08:13:28;;;;;;;18.10;7.57;;;;;;;22.00;67.70;100200.06;5077667;28;20274;-74
2022/08/15 08:16:00;;;;;;;20.73;8.07;;;;;;;22.02;67.64;100206.16;5077634;28;20021;-74
2022/08/15 08:18:41;;;;;;;22.13;7.35;;;;;;;22.06;68.14;100209.34;5075717;28;20515;-74
2022/08/15 08:21:15;;;;;;;18.70;7.82;;;;;;;22.08;67.83;100201.75;5075811;28;20016;-74
2022/08/15 08:23:50;;;;;;;18.27;7.45;;;;;;;22.15;68.61;100202.63;5075681;28;20023;-75
2022/08/15 08:26:24;;;;;;;17.80;6.88;;;;;;;22.17;69.15;100206.88;5076879;28;20032;-75
2022/08/15 08:29:08;;;;;;;18.00;7.25;;;;;;;22.21;67.86;100207.28;5075665;28;20024;-75
2022/08/15 08:32:12;;;;;;;19.00;7.63;;;;;;;22.24;67.52;100215.13;5075167;28;20048;-75
2022/08/15 08:35:05;;;;;;;19.30;7.82;;;;;;;22.27;67.88;100209.22;5077299;28;20044;-75
2022/08/15 08:37:34;;;;;;;20.15;7.43;;;;;;;22.28;67.79;100213.63;5076773;28;20031;-75
2022/08/15 08:43:04;;;;;;;17.05;6.90;;;;;;;22.32;67.56;100214.94;5076185;28;20035;-75
2022/08/15 08:45:43;;;;;;;20.38;7.47;;;;;;;22.32;68.13;100209.47;5075577;28;20031;-75
2022/08/15 08:48:37;;;;;;;18.83;6.90;;;;;;;22.35;67.72;100208.22;5076516;28;20020;-75
2022/08/15 08:51:16;;;;;;;26.20;7.30;;;;;;;22.32;67.91;100220.41;5076487;28;20063;-75
2022/08/15 08:54:01;;;;;;;18.50;7.55;;;;;;;22.31;67.51;100207.78;5076556;28;20028;-75
2022/08/15 08:56:35;;;;;;;19.50;7.72;;;;;;;22.28;67.95;100210.88;5075547;28;20108;-75
2022/08/15 08:59:23;;;;;;;20.38;8.18;;;;;;;22.27;67.70;100211.09;5076401;28;20480;-74
2022/08/15 09:01:56;;;;;;;18.70;6.85;;;;;;;22.24;67.71;100215.13;5075141;28;20028;-74
2022/08/15 09:04:29;;;;;;;18.73;7.80;;;;;;;22.22;67.32;100219.94;5076079;28;20032;-74
2022/08/15 09:06:56;;;;;;;19.65;8.05;;;;;;;22.21;67.87;100223.72;5076268;28;20476;-74
2022/08/15 09:09:36;;;;;;;18.98;7.80;;;;;;;22.21;67.40;100228.34;5074985;28;20435;-74
2022/08/15 09:14:51;;;;;;;;;;;;;;;22.25;67.46;100225.00;5076304;28;20446;-74
2022/08/15 09:17:16;;;;;;;21.70;7.93;;;;;;;22.22;68.65;100232.78;5076055;28;19912;-74
2022/08/15 09:19:50;;;;;;;20.83;8.13;;;;;;;22.22;68.19;100236.34;5074552;28;20115;-74
2022/08/15 09:22:16;;;;;;;19.40;7.35;;;;;;;22.24;68.44;100234.28;5076094;28;20028;-74
2022/08/15 09:24:42;;;;;;;21.00;8.00;;;;;;;22.28;68.44;100245.63;5076019;28;20035;-74
2022/08/15 09:27:19;;;;;;;21.85;8.32;;;;;;;22.30;68.43;100227.97;5074659;28;20021;-74
2022/08/15 09:29:50;;;;;;;20.55;8.50;;;;;;;22.35;69.32;100230.13;5075820;28;20103;-75
2022/08/15 09:32:27;;;;;;;19.38;8.25;;;;;;;22.40;68.47;100229.50;5074414;28;20052;-75
2022/08/15 09:35:17;;;;;;;23.30;9.20;;;;;;;22.43;68.21;100231.81;5075817;28;20051;-74
2022/08/15 09:38:20;;;;;;;21.50;9.43;;;;;;;22.48;67.89;100234.81;5073904;28;20570;-74
2022/08/15 09:41:20;;;;;;;20.48;9.20;;;;;;;22.48;68.06;100232.91;5074698;28;20450;-74
2022/08/15 09:43:55;;;;;;;20.05;8.27;;;;;;;22.53;68.68;100229.53;5074408;28;20103;-74
2022/08/15 09:46:39;;;;;;;20.90;8.60;;;;;;;22.57;68.45;100236.28;5075184;28;20372;-74
2022/08/15 09:49:27;;;;;;;19.60;8.35;;;;;;;22.63;67.99;100229.16;5074793;28;20032;-74
2022/08/15 09:51:58;;;;;;;19.33;8.00;;;;;;;22.67;68.36;100227.69;5075156;28;20024;-74
2022/08/15 09:54:26;;;;;;;21.20;9.20;;;;;;;22.72;69.01;100232.53;5074832;28;20465;-74
2022/08/15 09:57:23;;;;;;;20.77;7.72;;;;;;;22.78;67.89;100232.56;5075063;28;20495;-74
2022/08/15 09:59:55;;;;;;;19.38;9.00;;;;;;;22.83;68.23;100230.03;5056545;28;20044;-74
2022/08/15 10:02:23;;;;;;;22.60;9.10;;;;;;;22.88;67.31;100240.34;5073363;28;20028;-74
2022/08/15 10:04:49;;;;;;;18.93;7.93;;;;;;;22.93;68.14;100231.50;5074604;28;20036;-74
2022/08/15 10:07:29;;;;;;;18.45;8.23;;;;;;;22.97;67.84;100233.66;5074257;28;20029;-74
2022/08/15 10:10:00;;;;;;;20.25;8.15;;;;;;;23.02;67.64;100236.59;5074165;28;20021;-74
2022/08/15 10:12:27;;;;;;;19.33;8.68;;;;;;;23.05;66.79;100235.31;5074256;28;20039;-74
2022/08/15 10:14:52;;;;;;;18.75;8.15;;;;;;;23.10;67.55;100231.94;5072746;28;20020;-74
2022/08/15 10:17:37;;;;;;;18.30;7.60;;;;;;;23.17;67.74;100239.16;5074466;28;20032;-74
2022/08/15 10:20:14;;;;;;;20.42;9.02;;;;;;;23.23;66.47;100233.88;5074073;28;20297;-74
2022/08/15 10:22:57;;;;;;;20.73;8.15;;;;;;;23.24;66.07;100228.19;5074104;28;20079;-74
2022/08/15 10:25:22;;;;;;;19.58;7.80;;;;;;;23.29;67.19;100228.38;5072306;28;20528;-74
2022/08/15 10:27:56;;;;;;;22.57;7.80;;;;;;;23.33;66.65;100235.13;5072699;28;20082;-74
2022/08/15 10:30:25;;;;;;;17.85;7.50;;;;;;;23.33;66.61;100231.56;5072539;28;20332;-74
2022/08/15 10:32:52;;;;;;;22.15;8.10;;;;;;;23.36;66.58;100226.50;5073397;28;20090;-74
2022/08/15 10:35:36;;;;;;;18.73;8.55;;;;;;;23.39;65.68;100231.53;5074394;28;20525;-74
2022/08/15 10:38:07;;;;;;;19.70;7.30;;;;;;;23.37;64.99;100235.56;5073848;28;20024;-74
2022/08/15 10:40:50;;;;;;;19.33;8.23;;;;;;;23.39;65.41;100227.97;5072619;28;20028;-74
2022/08/15 10:43:52;;;;;;;22.15;8.95;;;;;;;23.37;64.92;100236.41;5072590;28;20028;-74
2022/08/15 10:46:37;;;;;;;18.02;7.07;;;;;;;23.35;66.30;100241.28;5072524;28;20031;-74
2022/08/15 10:49:12;;;;;;;18.90;8.18;;;;;;;23.37;65.82;100244.63;5073987;28;20017;-74
2022/08/15 10:51:40;;;;;;;21.20;8.05;;;;;;;23.41;66.22;100244.22;5074052;28;20020;-74
2022/08/15 10:54:40;;;;;;;19.27;8.68;;;;;;;23.40;65.58;100246.13;5073923;28;20052;-74
2022/08/15 10:57:08;;;;;;;24.48;8.15;;;;;;;23.36;65.21;100250.34;5073612;28;20381;-74
2022/08/15 10:59:42;;;;;;;23.77;8.50;;;;;;;23.35;65.04;100245.91;5073646;28;20028;-74
2022/08/15 11:02:38;;;;;;;21.65;7.88;;;;;;;23.34;64.68;100253.28;5073621;28;20032;-74
2022/08/15 11:05:08;;;;;;;17.20;7.25;;;;;;;23.31;64.55;100250.09;5072278;28;20024;-74
2022/08/15 11:07:36;;;;;;;21.88;7.03;;;;;;;23.29;65.30;100253.06;5073765;28;20388;-74
2022/08/15 11:10:12;;;;;;;19.23;7.53;;;;;;;23.28;64.38;100245.06;5073368;28;20095;-74
2022/08/15 11:12:42;;;;;;;19.85;7.07;;;;;;;23.26;65.59;100250.75;5073602;28;20426;-74
2022/08/15 11:15:16;;;;;;;19.15;7.70;;;;;;;23.25;65.67;100249.09;5073310;28;20036;-74
2022/08/15 11:17:45;;;;;;;19.15;6.85;;;;;;;23.27;66.33;100248.88;5073380;28;20510;-74
2022/08/15 11:20:16;;;;;;;17.80;7.53;;;;;;;23.27;64.66;100246.97;5073211;28;20361;-74
2022/08/15 11:22:52;;;;;;;19.63;7.35;;;;;;;23.28;65.35;100245.91;5073803;28;20025;-74
2022/08/15 11:25:23;;;;;;;18.52;6.97;;;;;;;23.27;64.67;100244.22;5073091;28;20484;-74
2022/08/15 11:28:05;;;;;;;18.48;7.53;;;;;;;23.29;64.87;100244.84;5073373;28;20035;-74
2022/08/15 11:30:35;;;;;;;16.35;7.55;;;;;;;23.29;63.86;100246.75;5071611;28;20029;-74
2022/08/15 11:33:23;;;;;;;24.35;8.82;;;;;;;23.30;64.53;100241.06;5053394;28;20109;-74
2022/08/15 11:36:02;;;;;;;19.92;6.72;;;;;;;23.31;64.97;100245.50;5053525;28;20067;-74
2022/08/15 11:38:29;;;;;;;;;;;;;;;23.38;64.93;100248.22;5052333;28;20031;-74
2022/08/15 11:40:55;;;;;;;19.52;8.05;;;;;;;23.36;64.34;100240.19;5053149;28;19964;-74
2022/08/15 11:43:21;;;;;;;17.42;7.13;;;;;;;23.43;64.82;100247.56;5053271;28;20053;-74
2022/08/15 11:45:49;;;;;;;19.77;7.43;;;;;;;23.47;65.31;100243.34;5051809;28;20579;-74
2022/08/15 11:48:22;;;;;;;16.90;7.40;;;;;;;23.54;65.09;100238.72;5053320;28;20025;-74
2022/08/15 11:51:00;;;;;;;19.23;7.82;;;;;;;23.58;64.55;100245.47;5056218;28;20024;-74
2022/08/15 11:53:30;;;;;;;19.92;8.02;;;;;;;23.62;63.83;100251.34;5071911;28;20136;-74